Time;durP1;ratioP1;P1;durP2;ratioP2;P2;SDS_P1;SDS_P2;PMS_P1;PMS_P2;Temp;Humidity;BMP_temperature;BMP_pressure;BME280_temperature;BME280_humidity;BME280_pressure;Samples;Min_cycle;Max_cycle;Signal;HPM_P1;HPM_P2
2022/05/09 00:03:44;;;;;;;19.77;7.90;;;;;;;10.67;70.99;100287.66;8200603;28;20194;-72
2022/05/09 00:07:46;;;;;;;17.67;7.53;;;;;;;10.70;70.38;100292.50;8200265;28;20051;-72
2022/05/09 00:11:47;;;;;;;22.15;7.55;;;;;;;10.72;69.96;100295.72;8200384;28;20467;-71
2022/05/09 00:15:48;;;;;;;19.60;7.78;;;;;;;10.72;69.44;100290.31;8199877;28;20047;-71
2022/05/09 00:19:49;;;;;;;23.60;8.50;;;;;;;10.68;69.12;100295.47;8214285;28;20059;-70
2022/05/09 00:23:51;;;;;;;21.77;7.90;;;;;;;10.66;69.03;100291.44;8200073;28;20440;-71
2022/05/09 00:27:53;;;;;;;19.98;8.00;;;;;;;10.64;69.18;100294.41;8199981;28;20040;-71
2022/05/09 00:32:00;;;;;;;21.63;7.90;;;;;;;10.56;69.41;100298.53;8214045;28;20060;-71
2022/05/09 00:36:01;;;;;;;17.90;8.20;;;;;;;10.50;69.25;100294.25;8200000;29;20090;-72
2022/05/09 00:40:03;;;;;;;28.27;7.30;;;;;;;10.46;69.62;100295.91;8199657;28;20051;-71
2022/05/09 00:44:09;;;;;;;25.08;8.15;;;;;;;10.42;69.41;100302.91;8199641;28;20054;-71
2022/05/09 00:48:10;;;;;;;19.23;7.78;;;;;;;10.40;69.62;100305.09;8199553;28;20510;-72
2022/05/09 00:52:23;;;;;;;22.25;8.27;;;;;;;10.35;69.63;100310.53;8199787;28;20058;-71
2022/05/09 00:56:30;;;;;;;23.48;8.40;;;;;;;10.29;69.68;100308.94;8227697;28;20051;-70
2022/05/09 01:00:31;;;;;;;21.45;6.72;;;;;;;10.24;69.14;100311.66;8227330;28;20461;-71
2022/05/09 01:04:43;;;;;;;21.00;7.10;;;;;;;10.15;69.00;100307.91;8227426;28;20101;-71
2022/05/09 01:08:43;;;;;;;23.90;6.80;;;;;;;10.08;68.90;100312.78;8211612;28;20058;-71
2022/05/09 01:12:47;;;;;;;15.68;6.10;;;;;;;10.07;68.62;100311.16;8227651;28;20507;-72
2022/05/09 01:16:49;;;;;;;19.13;6.47;;;;;;;10.03;68.40;100315.50;8211030;28;20462;-71
2022/05/09 01:20:50;;;;;;;14.75;5.97;;;;;;;10.01;68.24;100314.97;8226874;28;20494;-71
2022/05/09 01:24:53;;;;;;;25.95;5.68;;;;;;;9.98;68.02;100323.63;8225309;28;20051;-71
2022/05/09 01:28:57;;;;;;;18.63;5.78;;;;;;;9.93;67.75;100326.31;8203322;28;20047;-70
2022/05/09 01:33:04;;;;;;;24.55;5.90;;;;;;;9.91;67.75;100321.19;8204699;28;20047;-71
2022/05/09 01:37:07;;;;;;;19.92;5.38;;;;;;;9.88;67.58;100320.94;8203935;28;20051;-71
2022/05/09 01:41:10;;;;;;;20.52;6.00;;;;;;;9.90;67.15;100326.84;8203341;29;20051;-71
2022/05/09 01:45:13;;;;;;;17.33;6.47;;;;;;;9.85;67.34;100334.97;8204649;28;20521;-71
2022/05/09 01:49:32;;;;;;;17.70;5.18;;;;;;;9.81;67.74;100325.81;8204777;28;20051;-71
2022/05/09 01:53:35;;;;;;;13.43;5.25;;;;;;;9.75;67.67;100330.41;8204293;28;20051;-70
2022/05/09 01:57:36;;;;;;;14.68;5.53;;;;;;;9.68;67.71;100333.38;8219277;28;20049;-71
2022/05/09 02:01:40;;;;;;;23.92;6.05;;;;;;;9.61;67.92;100324.78;8204313;28;20051;-71
2022/05/09 02:05:41;;;;;;;22.95;5.68;;;;;;;9.52;68.18;100326.41;8203882;28;20505;-71
2022/05/09 02:09:47;;;;;;;20.38;6.55;;;;;;;9.42;68.56;100331.81;8204213;28;20055;-71
2022/05/09 02:13:48;;;;;;;20.83;6.22;;;;;;;9.37;68.72;100334.50;8203897;28;20062;-71
2022/05/09 02:17:49;;;;;;;17.38;5.93;;;;;;;9.32;69.17;100342.59;8203345;28;20051;-71
2022/05/09 02:21:50;;;;;;;22.20;6.32;;;;;;;9.23;69.29;100349.63;8203577;28;20062;-71
2022/05/09 02:25:53;;;;;;;32.22;6.72;;;;;;;9.17;70.12;100339.91;8203286;28;20054;-72
2022/05/09 02:29:54;;;;;;;21.08;6.25;;;;;;;9.13;70.08;100344.22;8203491;28;20397;-71
2022/05/09 02:33:55;;;;;;;19.48;6.45;;;;;;;9.05;70.14;100352.81;8169308;29;20054;-71
2022/05/09 02:37:56;;;;;;;16.90;5.65;;;;;;;9.01;70.42;100351.75;8216683;28;20055;-71
2022/05/09 02:41:58;;;;;;;20.17;6.22;;;;;;;8.91;70.73;100352.56;8184241;28;20566;-70
2022/05/09 02:46:03;;;;;;;17.13;5.70;;;;;;;8.86;71.08;100361.44;8202912;28;20062;-71
2022/05/09 02:50:04;;;;;;;19.85;6.63;;;;;;;8.79;71.14;100358.19;8202647;28;20517;-71
2022/05/09 02:54:05;;;;;;;21.23;6.40;;;;;;;8.71;71.35;100358.72;8202746;28;20146;-71
2022/05/09 02:58:07;;;;;;;19.33;6.90;;;;;;;8.66;71.42;100361.41;8202166;28;20054;-70
2022/05/09 03:02:10;;;;;;;18.10;6.18;;;;;;;8.62;71.66;100364.88;8202223;28;20825;-71
2022/05/09 03:06:12;;;;;;;18.98;6.97;;;;;;;8.53;71.79;100364.56;8202589;28;20503;-71
2022/05/09 03:10:14;;;;;;;19.17;6.55;;;;;;;8.49;72.04;100363.50;8202012;28;20102;-71
2022/05/09 03:14:15;;;;;;;18.73;6.65;;;;;;;8.48;71.87;100369.94;8201872;28;20063;-71
2022/05/09 03:18:18;;;;;;;16.20;6.72;;;;;;;8.37;72.12;100362.91;8202129;28;20142;-71
2022/05/09 03:22:19;;;;;;;23.75;5.60;;;;;;;8.32;72.45;100365.56;8202116;28;20627;-71
2022/05/09 03:26:29;;;;;;;16.15;6.68;;;;;;;8.29;72.42;100371.47;8215295;28;20076;-71
2022/05/09 03:30:31;;;;;;;19.35;6.28;;;;;;;8.27;72.57;100381.69;8200247;28;20075;-71
2022/05/09 03:34:32;;;;;;;23.45;6.78;;;;;;;8.27;72.69;100373.59;8202001;28;20066;-71
2022/05/09 03:38:33;;;;;;;15.93;6.40;;;;;;;8.22;73.04;100381.66;8178250;29;20106;-71
2022/05/09 03:42:34;;;;;;;19.90;6.38;;;;;;;8.20;73.15;100383.78;8199024;28;20470;-71
2022/05/09 03:46:35;;;;;;;17.13;6.18;;;;;;;8.21;73.10;100380.84;8201005;28;20505;-71
2022/05/09 03:50:36;;;;;;;23.05;6.90;;;;;;;8.20;73.29;100373.03;8200488;28;20047;-72
2022/05/09 03:54:37;;;;;;;24.80;7.32;;;;;;;8.23;73.54;100380.59;8195010;29;20056;-71
2022/05/09 03:58:39;;;;;;;22.33;7.25;;;;;;;8.25;73.80;100386.53;8181989;28;20093;-71
2022/05/09 04:02:41;;;;;;;19.00;6.82;;;;;;;8.28;73.84;100391.38;8200100;28;20051;-71
2022/05/09 04:06:42;;;;;;;19.30;7.25;;;;;;;8.32;73.76;100387.91;8201016;28;20043;-71
2022/05/09 04:10:45;;;;;;;16.10;7.13;;;;;;;8.37;73.64;100400.59;8205561;28;20051;-71
2022/05/09 04:19:10;;;;;;;23.50;7.35;;;;;;;8.47;74.04;100406.00;8199488;28;20050;-71
2022/05/09 04:23:11;;;;;;;20.52;7.30;;;;;;;8.50;74.16;100405.50;8199221;28;20047;-72
2022/05/09 04:27:12;;;;;;;19.75;8.07;;;;;;;8.58;74.09;100413.06;8209595;28;20058;-71
2022/05/09 04:31:13;;;;;;;21.67;7.97;;;;;;;8.65;74.06;100416.31;8199054;28;20047;-71
2022/05/09 04:35:19;;;;;;;20.35;7.38;;;;;;;8.70;73.84;100421.72;8199215;28;20495;-71
2022/05/09 04:39:21;;;;;;;17.23;7.88;;;;;;;8.76;73.95;100420.69;8198148;28;20051;-72
2022/05/09 04:43:23;;;;;;;21.13;7.45;;;;;;;8.82;73.57;100419.63;8165245;29;20507;-71
2022/05/09 04:47:24;;;;;;;21.10;7.90;;;;;;;8.90;73.49;100424.47;8198824;28;21005;-71
2022/05/09 04:51:25;;;;;;;21.83;7.78;;;;;;;9.01;73.11;100427.19;8207358;28;20564;-72
2022/05/09 04:55:26;;;;;;;24.02;8.23;;;;;;;9.12;73.21;100428.84;8195992;28;20085;-71
2022/05/09 04:59:27;;;;;;;22.45;8.32;;;;;;;9.20;72.80;100425.63;8187523;28;20056;-71
2022/05/09 05:03:28;;;;;;;24.63;8.20;;;;;;;9.29;72.77;100435.63;8178096;29;20071;-71
2022/05/09 05:07:29;;;;;;;23.55;8.90;;;;;;;9.39;72.62;100434.81;8223604;28;20055;-72
2022/05/09 05:11:30;;;;;;;21.35;9.02;;;;;;;9.48;72.40;100427.81;8180887;28;20135;-72
2022/05/09 05:15:32;;;;;;;18.17;7.55;;;;;;;9.56;72.07;100440.75;8175626;29;20047;-71
2022/05/09 05:19:38;;;;;;;19.73;9.07;;;;;;;9.67;71.96;100437.00;8199724;28;20054;-72
2022/05/09 05:23:40;;;;;;;28.20;8.10;;;;;;;9.75;71.50;100444.53;8182164;28;20066;-71
2022/05/09 05:27:40;;;;;;;22.77;8.10;;;;;;;9.87;71.02;100440.75;8175394;29;20058;-71
2022/05/09 05:31:43;;;;;;;21.27;7.70;;;;;;;9.97;70.76;100440.72;8190451;29;20499;-71
2022/05/09 05:35:43;;;;;;;15.60;6.90;;;;;;;10.06;70.33;100444.50;8174911;29;20435;-71
2022/05/09 05:39:46;;;;;;;18.00;7.30;;;;;;;10.18;69.60;100447.75;8185096;28;20051;-71
2022/05/09 05:43:47;;;;;;;20.70;6.97;;;;;;;10.27;69.22;100456.91;8176002;29;20083;-72
2022/05/09 05:47:50;;;;;;;20.17;7.43;;;;;;;10.43;68.78;100455.78;8179946;29;20592;-71
2022/05/09 05:51:50;;;;;;;15.38;7.03;;;;;;;10.52;68.12;100454.13;8176101;28;20131;-71
2022/05/09 05:55:51;;;;;;;23.00;6.93;;;;;;;10.58;68.46;100458.41;8172524;29;20055;-71
2022/05/09 05:59:55;;;;;;;25.85;7.63;;;;;;;10.70;68.38;100449.19;8194278;29;20477;-71
2022/05/09 06:03:56;;;;;;;18.25;7.43;;;;;;;10.84;67.98;100461.03;8204698;28;20431;-72
2022/05/09 06:07:57;;;;;;;24.58;7.32;;;;;;;10.96;67.63;100461.50;8203729;28;20059;-71
2022/05/09 06:12:01;;;;;;;22.05;7.30;;;;;;;11.05;68.02;100459.81;8185078;28;20098;-72
2022/05/09 06:16:02;;;;;;;14.25;6.95;;;;;;;11.18;67.59;100471.94;8203702;28;20051;-71
2022/05/09 06:20:08;;;;;;;13.57;6.28;;;;;;;11.30;66.92;100470.50;8203630;28;20142;-71
2022/05/09 06:24:09;;;;;;;17.70;6.57;;;;;;;11.44;66.72;100476.91;8202568;28;20491;-71
2022/05/09 06:28:10;;;;;;;18.20;7.10;;;;;;;11.58;66.52;100481.69;8203432;28;20495;-71
2022/05/09 06:32:11;;;;;;;20.73;7.35;;;;;;;11.62;66.41;100477.34;8202310;29;20044;-71
2022/05/09 06:36:12;;;;;;;12.98;6.13;;;;;;;11.76;66.50;100475.63;8203153;28;20415;-72
2022/05/09 06:40:13;;;;;;;14.75;6.25;;;;;;;11.90;65.91;100484.69;8216728;28;20061;-71
2022/05/09 06:44:14;;;;;;;18.00;6.70;;;;;;;11.97;65.71;100484.38;8202433;28;20487;-71
2022/05/09 06:48:15;;;;;;;20.52;6.60;;;;;;;12.05;65.49;100490.00;8203090;28;20130;-71
2022/05/09 06:52:16;;;;;;;18.65;6.25;;;;;;;12.16;65.08;100490.72;8216582;28;20130;-71
2022/05/09 06:56:17;;;;;;;18.95;6.63;;;;;;;12.26;65.14;100494.13;8202813;28;20052;-72
2022/05/09 07:00:21;;;;;;;14.30;6.53;;;;;;;12.38;64.89;100495.63;8202202;28;20055;-71
2022/05/09 07:04:22;;;;;;;17.00;7.00;;;;;;;12.44;64.55;100499.88;8202564;28;20082;-71
2022/05/09 07:08:25;;;;;;;12.25;5.80;;;;;;;12.58;64.27;100500.84;8201412;28;20503;-72
2022/05/09 07:12:25;;;;;;;15.02;6.72;;;;;;;12.73;64.22;100503.38;8202058;28;20055;-71
2022/05/09 07:16:26;;;;;;;11.82;5.53;;;;;;;12.87;63.82;100498.88;8201483;28;20066;-71
2022/05/09 07:20:30;;;;;;;15.38;6.07;;;;;;;13.01;63.25;100497.03;8201312;28;20086;-71
2022/05/09 07:24:31;;;;;;;17.05;6.32;;;;;;;13.15;63.00;100504.50;8201418;28;20047;-71
2022/05/09 07:28:32;;;;;;;14.07;5.50;;;;;;;13.29;62.60;100499.97;8215787;28;20074;-71
2022/05/09 07:32:33;;;;;;;18.50;6.00;;;;;;;13.42;62.19;100499.25;8201282;28;20047;-72
2022/05/09 07:36:37;;;;;;;18.77;5.85;;;;;;;13.57;62.01;100504.44;8200995;28;20046;-72
2022/05/09 07:40:40;;;;;;;14.32;5.45;;;;;;;13.68;60.94;100497.78;8200530;28;20312;-72
2022/05/09 07:44:41;;;;;;;11.60;5.60;;;;;;;13.87;60.97;100501.25;8199733;28;20110;-73
2022/05/09 07:48:42;;;;;;;14.65;5.38;;;;;;;14.07;60.80;100504.72;8206511;28;20043;-74
2022/05/09 07:52:43;;;;;;;17.08;5.70;;;;;;;14.27;60.07;100509.84;8201986;28;20046;-72
2022/05/09 07:56:44;;;;;;;16.50;5.70;;;;;;;14.43;59.71;100519.34;8200660;28;20529;-72
2022/05/09 08:00:46;;;;;;;14.38;5.47;;;;;;;14.55;59.09;100500.63;8203059;28;20164;-72
2022/05/09 08:04:47;;;;;;;15.07;5.57;;;;;;;14.68;58.42;100499.84;8210738;28;20415;-72
2022/05/09 08:08:49;;;;;;;24.25;5.47;;;;;;;14.77;57.26;100503.44;8199201;28;20101;-71
2022/05/09 08:12:50;;;;;;;12.75;5.00;;;;;;;14.84;56.30;100508.50;8209934;28;20051;-72
2022/05/09 08:16:51;;;;;;;13.02;5.28;;;;;;;15.06;56.49;100510.50;8212804;28;20475;-72
2022/05/09 08:20:55;;;;;;;15.40;5.75;;;;;;;15.20;55.79;100503.13;8212032;28;20578;-72
2022/05/09 08:24:58;;;;;;;13.27;4.43;;;;;;;15.35;55.29;100497.31;8198708;28;20499;-71
2022/05/09 08:28:59;;;;;;;19.80;5.10;;;;;;;15.48;54.01;100501.94;8199129;28;20481;-72
2022/05/09 08:33:00;;;;;;;11.45;4.50;;;;;;;15.62;53.88;100508.16;8198899;28;20114;-72
2022/05/09 08:37:02;;;;;;;13.70;5.03;;;;;;;15.75;52.49;100511.97;8198486;28;20047;-71
2022/05/09 08:41:13;;;;;;;11.30;4.70;;;;;;;15.87;52.14;100508.66;8212392;28;20050;-71
2022/05/09 08:45:21;;;;;;;18.35;4.22;;;;;;;16.12;51.47;100509.97;8196352;28;20415;-73
2022/05/09 08:49:40;;;;;;;11.20;4.05;;;;;;;16.27;50.82;100504.94;8199339;28;20058;-72
2022/05/09 08:53:44;;;;;;;11.35;4.40;;;;;;;16.33;50.59;100522.78;8196154;28;20423;-72
2022/05/09 08:57:54;;;;;;;11.68;4.40;;;;;;;16.44;49.91;100526.03;8195820;28;20043;-72
2022/05/09 09:02:19;;;;;;;9.63;3.83;;;;;;;16.50;48.66;100521.25;8199179;28;20130;-72
2022/05/09 09:06:41;;;;;;;8.95;3.95;;;;;;;16.76;49.10;100519.47;8198393;28;20062;-72
2022/05/09 09:10:54;;;;;;;13.75;4.30;;;;;;;16.84;48.08;100521.41;8198541;28;20046;-72
2022/05/09 09:15:32;;;;;;;11.80;4.38;;;;;;;16.99;47.67;100518.25;8197861;28;20499;-72
2022/05/09 09:19:45;;;;;;;9.35;4.10;;;;;;;17.08;46.77;100521.78;8162749;29;20542;-72
2022/05/09 09:23:48;;;;;;;14.68;4.38;;;;;;;17.19;46.29;100522.28;8162524;29;20048;-72
2022/05/09 09:27:54;;;;;;;12.70;4.22;;;;;;;17.23;46.34;100513.19;8162915;29;20044;-72
2022/05/09 09:32:00;;;;;;;15.88;4.18;;;;;;;17.37;46.50;100512.22;8161219;29;20514;-72
2022/05/09 09:36:09;;;;;;;10.80;4.50;;;;;;;17.60;46.39;100516.47;8160233;29;20055;-72
2022/05/09 09:40:10;;;;;;;9.55;4.20;;;;;;;17.58;45.77;100513.19;8161746;29;20415;-72
2022/05/09 09:44:16;;;;;;;12.60;3.70;;;;;;;17.61;44.82;100512.56;8161338;29;20377;-72
2022/05/09 09:48:23;;;;;;;14.60;3.97;;;;;;;17.80;44.52;100510.34;8161453;29;20058;-72
2022/05/09 09:52:32;;;;;;;13.57;3.70;;;;;;;17.96;43.62;100514.19;8167371;29;20052;-73
2022/05/09 09:56:34;;;;;;;;;;;;;;;17.89;43.55;100513.84;8198935;28;20150;-72
2022/05/09 10:00:35;;;;;;;11.55;3.30;;;;;;;17.85;42.67;100507.44;8202795;28;19922;-72
2022/05/09 10:04:36;;;;;;;15.80;4.68;;;;;;;17.99;43.18;100508.06;8203409;28;20062;-73
2022/05/09 10:08:38;;;;;;;13.18;3.53;;;;;;;18.16;40.98;100512.69;8200970;28;20054;-72
2022/05/09 10:12:53;;;;;;;14.35;3.70;;;;;;;18.25;40.61;100504.47;8207757;28;20040;-72
2022/05/09 10:17:32;;;;;;;16.33;3.00;;;;;;;18.33;40.10;100512.66;8202197;28;20047;-72
2022/05/09 10:26:03;;;;;;;11.52;3.55;;;;;;;18.98;41.44;100495.81;8165495;29;20059;-71
2022/05/09 10:30:07;;;;;;;11.82;3.15;;;;;;;19.14;40.83;100492.53;8165819;29;20468;-72
2022/05/09 10:34:39;;;;;;;13.57;3.88;;;;;;;19.21;39.86;100495.50;8167127;29;20580;-72
2022/05/09 10:38:56;;;;;;;15.48;3.53;;;;;;;19.38;39.88;100493.47;8166459;29;20130;-72
2022/05/09 10:43:07;;;;;;;12.02;3.67;;;;;;;19.59;40.05;100487.22;8166720;29;20484;-72
2022/05/09 10:47:26;;;;;;;9.50;3.25;;;;;;;19.73;39.71;100479.50;8166958;29;20071;-73
2022/05/09 10:51:38;;;;;;;16.35;3.05;;;;;;;19.45;39.13;100486.69;8166321;29;20063;-72
2022/05/09 10:56:15;;;;;;;11.80;3.05;;;;;;;19.53;39.17;100478.38;8166361;29;20109;-72
2022/05/09 11:00:22;;;;;;;15.07;3.33;;;;;;;19.70;37.67;100471.97;8214936;28;20051;-72
2022/05/09 11:04:24;;;;;;;11.60;3.03;;;;;;;19.89;38.08;100469.50;8231606;28;20055;-72
2022/05/09 11:08:57;;;;;;;12.63;3.40;;;;;;;20.00;37.61;100475.38;8215518;28;20456;-72
2022/05/09 11:13:01;;;;;;;11.95;3.25;;;;;;;20.13;37.91;100463.31;8197245;29;20188;-72
2022/05/09 11:17:17;;;;;;;11.38;2.75;;;;;;;20.20;37.10;100458.84;8197396;29;20044;-72
2022/05/09 11:21:33;;;;;;;11.43;2.80;;;;;;;20.49;37.26;100454.34;8197047;29;20188;-72
2022/05/09 11:25:42;;;;;;;8.25;2.80;;;;;;;20.63;36.34;100461.09;8197201;29;20047;-72
2022/05/09 11:30:07;;;;;;;11.75;3.60;;;;;;;20.75;36.47;100452.06;8196663;29;20150;-72
2022/05/09 11:34:20;;;;;;;7.63;3.30;;;;;;;20.78;36.73;100445.09;8196740;28;20513;-72
2022/05/09 11:38:34;;;;;;;15.00;3.25;;;;;;;21.12;36.35;100447.34;8196059;28;20455;-72
2022/05/09 11:47:30;;;;;;;9.20;2.90;;;;;;;21.28;35.17;100441.94;8192378;29;20064;-72
2022/05/09 11:51:48;;;;;;;11.80;2.88;;;;;;;21.33;33.90;100434.25;8198514;28;20067;-72
2022/05/09 11:55:49;;;;;;;9.50;2.92;;;;;;;21.29;34.84;100427.88;8197944;28;20055;-71
2022/05/09 11:59:54;;;;;;;10.07;3.17;;;;;;;21.36;34.95;100432.78;8200554;29;20051;-72
2022/05/09 12:03:55;;;;;;;9.07;3.28;;;;;;;21.16;34.84;100423.53;8180099;28;20182;-72
2022/05/09 12:08:15;;;;;;;11.68;3.00;;;;;;;21.40;35.76;100423.47;8199988;28;20455;-72
2022/05/09 12:12:56;;;;;;;12.52;2.45;;;;;;;21.65;34.44;100428.88;8197076;28;20483;-72
2022/05/09 12:16:56;;;;;;;11.07;2.80;;;;;;;21.84;33.91;100420.75;8195280;29;20043;-72
2022/05/09 12:21:11;;;;;;;9.52;3.00;;;;;;;21.87;33.25;100425.56;8195597;28;20123;-70
2022/05/09 12:25:35;;;;;;;8.07;2.72;;;;;;;21.96;32.86;100428.97;8194442;28;20058;-72
2022/05/09 12:29:49;;;;;;;11.68;3.30;;;;;;;21.64;33.06;100416.25;8194068;29;20619;-72
2022/05/09 12:33:53;;;;;;;10.35;3.65;;;;;;;21.88;34.20;100410.66;8173681;29;20511;-72
2022/05/09 12:37:54;;;;;;;9.15;3.05;;;;;;;21.92;33.39;100417.03;8194983;28;20047;-72
2022/05/09 12:41:57;;;;;;;9.40;2.70;;;;;;;22.01;33.49;100414.16;8163429;29;20494;-71
2022/05/09 12:46:01;;;;;;;10.88;3.08;;;;;;;21.25;33.99;100407.75;8193956;28;20050;-73
2022/05/09 12:50:07;;;;;;;7.53;2.70;;;;;;;21.06;34.06;100402.03;8178160;29;20043;-73
2022/05/09 12:54:10;;;;;;;9.20;2.67;;;;;;;21.65;33.55;100390.38;8209366;28;20047;-72
2022/05/09 12:58:34;;;;;;;12.60;3.13;;;;;;;22.05;31.71;100393.81;8192826;29;20054;-72
2022/05/09 13:02:35;;;;;;;7.78;2.90;;;;;;;22.11;32.69;100375.91;8185964;29;20107;-72
2022/05/09 13:06:48;;;;;;;6.43;2.80;;;;;;;22.20;32.48;100379.28;8192865;28;20102;-72
2022/05/09 13:10:52;;;;;;;6.60;2.50;;;;;;;22.36;32.88;100373.78;8193775;28;20077;-72
2022/05/09 13:14:56;;;;;;;8.77;2.72;;;;;;;21.98;32.85;100366.16;8184862;29;20058;-72
2022/05/09 13:18:58;;;;;;;10.02;3.20;;;;;;;21.53;33.07;100366.50;8209807;28;20206;-72
2022/05/09 13:23:02;;;;;;;8.70;2.88;;;;;;;21.92;33.43;100356.53;8199123;28;20067;-71
2022/05/09 13:27:05;;;;;;;9.07;3.10;;;;;;;22.65;31.73;100361.47;8211905;28;20062;-72
2022/05/09 13:31:06;;;;;;;6.20;2.55;;;;;;;23.38;30.04;100338.59;8197283;29;20047;-72
2022/05/09 13:35:35;;;;;;;10.80;2.47;;;;;;;23.04;31.11;100338.34;8200320;29;20054;-72
2022/05/09 13:39:47;;;;;;;8.73;2.67;;;;;;;23.82;30.27;100331.59;8196162;28;20459;-72
2022/05/09 13:43:50;;;;;;;14.82;3.33;;;;;;;25.07;28.61;100334.25;8197544;28;20511;-72
2022/05/09 13:47:54;;;;;;;9.95;2.70;;;;;;;25.03;29.00;100327.91;8149110;28;20043;-72
2022/05/09 13:51:58;;;;;;;7.38;2.80;;;;;;;27.40;27.20;100315.09;8195365;28;20570;-71
2022/05/09 13:56:01;;;;;;;9.98;2.70;;;;;;;28.91;24.39;100317.06;8200964;29;20237;-72
2022/05/09 14:00:09;;;;;;;9.95;2.63;;;;;;;29.44;21.84;100316.03;8198666;29;20109;-72
2022/05/09 14:04:14;;;;;;;10.18;2.45;;;;;;;30.91;22.34;100305.94;8137386;29;20369;-72
2022/05/09 14:08:16;;;;;;;6.28;2.47;;;;;;;32.22;21.17;100298.44;8137516;29;20056;-72
2022/05/09 14:12:19;;;;;;;8.73;2.72;;;;;;;33.07;20.45;100297.56;8121884;29;20521;-72
2022/05/09 14:16:26;;;;;;;8.25;2.55;;;;;;;33.94;19.49;100289.59;8157624;29;20063;-72
2022/05/09 14:20:38;;;;;;;7.13;2.40;;;;;;;34.11;19.03;100290.31;8168053;29;20044;-71
2022/05/09 14:29:36;;;;;;;8.63;2.72;;;;;;;34.64;18.57;100295.31;8152266;29;20059;-72
2022/05/09 14:33:39;;;;;;;5.88;2.45;;;;;;;34.95;16.61;100280.84;8176248;28;20051;-72
2022/05/09 14:37:53;;;;;;;8.98;2.78;;;;;;;34.45;17.64;100287.84;8202898;28;20043;-72
2022/05/09 14:42:18;;;;;;;5.80;2.67;;;;;;;33.55;18.03;100287.72;8200098;28;20120;-73
2022/05/09 14:46:19;;;;;;;10.40;2.50;;;;;;;32.93;17.92;100292.28;8185457;28;20059;-72
2022/05/09 14:50:24;;;;;;;9.80;2.70;;;;;;;31.94;18.44;100282.16;8205436;28;20042;-72
2022/05/09 14:54:31;;;;;;;5.60;2.50;;;;;;;30.37;19.86;100289.00;8202352;28;20047;-72
2022/05/09 14:58:37;;;;;;;5.03;1.93;;;;;;;31.90;19.73;100276.63;8199388;28;20050;-73
2022/05/09 15:02:56;;;;;;;5.65;2.53;;;;;;;33.13;18.13;100283.06;8202615;28;20129;-72
2022/05/09 15:06:59;;;;;;;9.25;2.47;;;;;;;32.40;17.80;100275.75;8177284;29;20051;-73
2022/05/09 15:11:04;;;;;;;7.72;2.10;;;;;;;31.33;18.34;100271.91;8203052;28;20055;-72
2022/05/09 15:15:06;;;;;;;6.32;2.30;;;;;;;29.95;19.77;100272.72;8199449;28;20117;-73
2022/05/09 15:19:07;;;;;;;7.05;2.35;;;;;;;29.52;20.32;100273.03;8202809;28;20499;-72
2022/05/09 15:23:08;;;;;;;7.00;2.13;;;;;;;29.19;20.02;100265.25;8199816;28;20051;-72
2022/05/09 15:27:13;;;;;;;5.57;2.20;;;;;;;27.80;21.66;100270.38;8215012;28;20130;-73
2022/05/09 15:31:15;;;;;;;7.43;2.45;;;;;;;26.79;22.87;100266.97;8206273;28;20051;-77
2022/05/09 15:35:20;;;;;;;6.40;2.10;;;;;;;26.69;23.36;100256.63;8212377;28;20051;-72
2022/05/09 15:39:21;;;;;;;5.65;2.22;;;;;;;28.17;21.56;100260.88;8199372;28;20055;-72
2022/05/09 15:43:27;;;;;;;5.93;2.38;;;;;;;28.85;20.21;100257.50;8200067;29;20434;-73
2022/05/09 15:47:32;;;;;;;6.70;2.55;;;;;;;29.47;20.02;100253.19;8197018;28;20055;-72
2022/05/09 15:51:36;;;;;;;6.10;2.47;;;;;;;29.06;20.57;100251.03;8198842;28;20087;-72
2022/05/09 15:55:39;;;;;;;7.00;2.20;;;;;;;28.49;20.92;100250.47;8201451;28;20082;-73
2022/05/09 15:59:41;;;;;;;7.60;2.17;;;;;;;28.26;20.56;100250.13;8201677;28;20051;-73
2022/05/09 16:03:43;;;;;;;7.25;2.40;;;;;;;28.96;20.17;100252.69;8152444;28;20672;-73
2022/05/09 16:12:12;;;;;;;6.10;2.00;;;;;;;27.67;21.77;100245.00;8222839;28;20186;-72
2022/05/09 16:16:29;;;;;;;5.70;2.40;;;;;;;26.62;22.87;100245.50;8152748;29;20057;-72
2022/05/09 16:20:31;;;;;;;5.18;2.08;;;;;;;25.62;23.49;100244.03;8204369;28;20072;-72
2022/05/09 16:24:32;;;;;;;6.18;2.15;;;;;;;25.04;24.04;100225.28;8201208;28;20467;-73
2022/05/09 16:28:34;;;;;;;4.20;2.22;;;;;;;24.10;25.19;100231.13;8200720;28;20119;-73
2022/05/09 16:32:37;;;;;;;6.00;2.42;;;;;;;23.51;26.07;100240.84;8201421;28;20450;-74
2022/05/09 16:36:38;;;;;;;7.35;2.28;;;;;;;23.20;26.32;100232.75;8187448;28;20051;-73
2022/05/09 16:40:42;;;;;;;5.28;2.30;;;;;;;22.65;26.39;100229.28;8181715;28;20051;-72
2022/05/09 16:45:07;;;;;;;5.05;2.20;;;;;;;22.40;27.07;100222.47;8199418;28;20047;-72
2022/05/09 16:49:08;;;;;;;4.32;2.30;;;;;;;21.87;27.56;100222.84;8199518;28;20047;-72
2022/05/09 16:53:09;;;;;;;7.68;2.63;;;;;;;21.48;28.12;100221.88;8200313;28;20055;-72
2022/05/09 16:57:09;;;;;;;7.03;2.30;;;;;;;21.21;28.97;100228.25;8214510;28;20154;-72
2022/05/09 17:01:10;;;;;;;7.78;2.60;;;;;;;20.99;28.92;100228.81;8219542;28;20051;-73
2022/05/09 17:05:13;;;;;;;6.32;2.45;;;;;;;20.81;28.94;100230.25;8219488;28;20052;-73
2022/05/09 17:09:14;;;;;;;7.07;2.60;;;;;;;20.67;29.45;100229.88;8212049;28;20057;-74
2022/05/09 17:13:21;;;;;;;6.28;2.72;;;;;;;20.43;29.75;100231.53;8205626;28;20423;-71
2022/05/09 17:17:25;;;;;;;5.70;2.77;;;;;;;20.33;30.15;100232.00;8220266;28;20043;-71
2022/05/09 17:21:25;;;;;;;8.73;3.58;;;;;;;20.10;30.67;100231.66;8205427;28;20091;-72
2022/05/09 17:25:44;;;;;;;8.15;3.08;;;;;;;19.79;30.77;100224.03;8204033;28;20051;-72
2022/05/09 17:29:45;;;;;;;8.40;3.40;;;;;;;19.78;31.25;100233.41;8204462;28;20059;-72
2022/05/09 17:33:48;;;;;;;11.95;3.75;;;;;;;19.55;32.83;100218.56;8205300;28;20054;-73
2022/05/09 17:37:49;;;;;;;18.58;5.18;;;;;;;19.34;33.20;100223.31;8203153;28;20070;-72
2022/05/09 17:41:53;;;;;;;13.77;5.68;;;;;;;19.24;33.31;100218.28;8201038;28;20414;-72
2022/05/09 17:45:53;;;;;;;12.00;5.00;;;;;;;19.13;33.70;100222.56;8205205;28;20467;-73
2022/05/09 17:49:58;;;;;;;11.27;5.18;;;;;;;18.94;34.14;100221.13;8203094;29;20526;-75
2022/05/09 17:53:59;;;;;;;11.65;4.35;;;;;;;18.83;34.94;100225.44;8201581;28;20487;-73
2022/05/09 17:58:02;;;;;;;18.65;4.85;;;;;;;18.73;35.68;100225.84;8204982;28;20043;-72
2022/05/09 18:02:04;;;;;;;14.52;5.70;;;;;;;18.63;36.10;100230.94;8202914;28;20061;-72
2022/05/09 18:06:06;;;;;;;12.60;5.45;;;;;;;18.38;36.93;100229.97;8202696;28;20055;-72
2022/05/09 18:10:07;;;;;;;25.08;5.38;;;;;;;18.14;37.54;100231.41;8203663;28;20406;-71
2022/05/09 18:14:10;;;;;;;12.00;4.55;;;;;;;17.92;38.46;100229.00;8201467;28;20419;-71
2022/05/09 18:18:30;;;;;;;13.65;5.97;;;;;;;17.70;38.92;100232.00;8202772;29;20048;-71
2022/05/09 18:22:33;;;;;;;27.40;6.97;;;;;;;17.46;39.50;100237.19;8203322;28;20459;-71
2022/05/09 18:26:35;;;;;;;20.10;7.57;;;;;;;17.23;40.04;100229.25;8201509;29;20047;-71
2022/05/09 18:30:37;;;;;;;23.83;9.80;;;;;;;17.00;40.85;100241.50;8217263;28;20425;-72
2022/05/09 18:34:38;;;;;;;29.55;9.75;;;;;;;16.78;41.25;100241.69;8201264;28;20494;-73
2022/05/09 18:38:42;;;;;;;30.63;11.13;;;;;;;16.60;41.46;100240.09;8186313;29;20067;-72
2022/05/09 18:42:43;;;;;;;34.28;12.52;;;;;;;16.33;42.14;100239.25;8202641;28;20052;-73
2022/05/09 18:46:45;;;;;;;24.83;11.32;;;;;;;16.09;42.62;100244.34;8201340;28;20061;-71
2022/05/09 18:55:13;;;;;;;30.55;13.57;;;;;;;15.63;43.47;100237.47;8199899;28;20158;-71
2022/05/09 18:59:14;;;;;;;29.55;12.98;;;;;;;15.48;43.50;100246.03;8168223;29;20051;-71
2022/05/09 19:03:17;;;;;;;30.50;14.05;;;;;;;15.39;43.52;100242.44;8201430;28;20443;-70
2022/05/09 19:07:18;;;;;;;29.10;11.05;;;;;;;15.18;44.13;100246.81;8198439;28;20050;-71
2022/05/09 19:11:21;;;;;;;23.27;10.45;;;;;;;15.08;44.12;100252.50;8200074;28;20562;-71
2022/05/09 19:15:22;;;;;;;23.35;10.00;;;;;;;14.97;44.24;100257.41;8214222;28;20051;-70
2022/05/09 19:19:23;;;;;;;17.90;8.52;;;;;;;14.83;44.52;100250.44;8214896;28;20047;-71
2022/05/09 19:23:24;;;;;;;15.10;8.25;;;;;;;14.63;44.93;100252.53;8205769;28;20419;-70